createdAt,value
2019-05-29T00:00:45.551Z,26.67
2019-05-29T00:03:19.074Z,21.27
2019-05-29T00:05:52.211Z,25.33
2019-05-29T00:08:26.273Z,23.63
2019-05-29T00:11:00.485Z,26.70
2019-05-29T00:13:35.419Z,25.33
2019-05-29T00:16:08.675Z,22.77
2019-05-29T00:18:41.868Z,37.90
2019-05-29T00:21:15.411Z,39.27
2019-05-29T00:23:49.435Z,28.57
2019-05-29T00:26:24.512Z,25.87
2019-05-29T00:28:58.029Z,32.40
2019-05-29T00:31:31.862Z,28.63
2019-05-29T00:34:06.970Z,26.57
2019-05-29T00:36:41.570Z,26.37
2019-05-29T00:39:16.651Z,28.67
2019-05-29T00:41:50.635Z,31.73
2019-05-29T00:44:34.042Z,30.23
2019-05-29T00:46:59.716Z,32.67
2019-05-29T00:49:32.774Z,32.10
2019-05-29T00:52:16.598Z,31.03
2019-05-29T00:54:50.419Z,31.20
2019-05-29T00:57:24.027Z,33.93
2019-05-29T00:59:57.429Z,37.93
2019-05-29T01:02:30.898Z,28.50
2019-05-29T01:05:04.504Z,31.83
2019-05-29T01:07:42.913Z,30.63
2019-05-29T01:10:16.789Z,29.33
2019-05-29T01:12:49.830Z,32.30
2019-05-29T01:15:23.890Z,24.53
2019-05-29T01:17:57.164Z,25.87
2019-05-29T01:20:30.303Z,30.90
2019-05-29T01:23:03.973Z,25.03
2019-05-29T01:25:37.059Z,25.03
2019-05-29T01:28:10.175Z,21.17
2019-05-29T01:30:43.586Z,23.73
2019-05-29T01:33:19.999Z,21.67
2019-05-29T01:35:52.099Z,26.40
2019-05-29T01:38:25.909Z,25.27
2019-05-29T01:40:58.889Z,28.97
2019-05-29T01:43:32.606Z,28.13
2019-05-29T01:46:05.884Z,41.17
2019-05-29T01:48:39.518Z,29.23
2019-05-29T01:51:13.528Z,23.90
2019-05-29T01:53:47.054Z,30.87
2019-05-29T01:56:28.016Z,33.53
2019-05-29T01:59:01.617Z,26.27
2019-05-29T02:01:34.923Z,20.43
2019-05-29T02:04:08.407Z,25.87
2019-05-29T02:06:41.842Z,26.37
2019-05-29T02:09:15.931Z,25.43
2019-05-29T02:11:49.680Z,25.50
2019-05-29T02:14:24.706Z,27.87
2019-05-29T02:16:58.596Z,27.47
2019-05-29T02:19:32.221Z,32.17
2019-05-29T02:22:05.838Z,26.27
2019-05-29T02:24:39.416Z,25.30
2019-05-29T02:27:13.947Z,23.13
2019-05-29T02:29:47.728Z,25.60
2019-05-29T02:32:21.468Z,26.50
2019-05-29T02:34:55.012Z,22.23
2019-05-29T02:37:28.979Z,26.23
2019-05-29T02:40:02.615Z,25.07
2019-05-29T02:42:36.925Z,20.43
2019-05-29T02:45:11.070Z,22.07
2019-05-29T02:47:44.699Z,28.43
2019-05-29T02:50:19.888Z,26.33
2019-05-29T02:52:53.713Z,24.53
2019-05-29T02:55:28.802Z,25.03
2019-05-29T02:58:02.284Z,33.30
2019-05-29T03:00:57.803Z,22.97
2019-05-29T03:03:37.972Z,27.77
2019-05-29T03:06:05.889Z,21.10
2019-05-29T03:08:38.887Z,34.47
2019-05-29T03:11:12.759Z,31.67
2019-05-29T03:13:47.065Z,26.80
2019-05-29T03:16:26.659Z,26.80
2019-05-29T03:18:59.826Z,23.97
2019-05-29T03:21:34.724Z,25.63
2019-05-29T03:24:08.258Z,27.97
2019-05-29T03:26:42.056Z,30.67
2019-05-29T03:29:15.496Z,33.97
2019-05-29T03:31:49.124Z,31.87
2019-05-29T03:34:22.592Z,26.13
2019-05-29T03:36:58.007Z,28.60
2019-05-29T03:39:32.340Z,29.20
2019-05-29T03:42:06.156Z,27.23
2019-05-29T03:44:40.001Z,24.93
2019-05-29T03:47:13.109Z,28.07
2019-05-29T03:49:47.332Z,30.00
2019-05-29T03:52:20.797Z,29.90
2019-05-29T03:54:54.115Z,26.83
2019-05-29T03:57:29.413Z,29.37
2019-05-29T04:00:02.780Z,25.77
2019-05-29T04:02:38.180Z,24.70
2019-05-29T04:05:12.938Z,30.33
2019-05-29T04:07:46.275Z,21.33
2019-05-29T04:10:32.442Z,24.57
2019-05-29T04:13:05.600Z,32.60
2019-05-29T04:15:40.681Z,26.03
2019-05-29T04:18:18.687Z,27.87
2019-05-29T04:20:52.762Z,30.83
2019-05-29T04:23:29.987Z,35.33
2019-05-29T04:26:04.543Z,29.47
2019-05-29T04:28:38.993Z,23.77
2019-05-29T04:31:12.163Z,22.20
2019-05-29T04:33:45.122Z,30.57
2019-05-29T04:36:18.796Z,26.10
2019-05-29T04:38:52.372Z,36.63
2019-05-29T04:41:25.856Z,20.73
2019-05-29T04:44:00.161Z,32.57
2019-05-29T04:46:36.225Z,25.17
2019-05-29T04:49:09.947Z,22.67
2019-05-29T04:51:43.932Z,23.60
2019-05-29T04:54:17.083Z,28.53
2019-05-29T04:56:50.839Z,30.50
2019-05-29T04:59:25.114Z,30.23
2019-05-29T05:01:58.412Z,21.93
2019-05-29T05:04:31.532Z,21.50
2019-05-29T05:07:05.204Z,26.23
2019-05-29T05:09:39.634Z,26.70
2019-05-29T05:12:13.820Z,19.83
2019-05-29T05:14:47.183Z,26.87
2019-05-29T05:17:26.267Z,31.13
2019-05-29T05:19:56.012Z,22.77
2019-05-29T05:22:29.977Z,22.60
2019-05-29T05:25:03.699Z,19.47
2019-05-29T05:27:38.345Z,26.93
2019-05-29T05:30:12.017Z,28.67
2019-05-29T05:32:45.198Z,23.37
2019-05-29T05:35:18.555Z,18.70
2019-05-29T05:37:52.032Z,26.07
2019-05-29T05:40:25.803Z,20.70
2019-05-29T05:42:59.389Z,25.03
2019-05-29T05:45:33.335Z,21.23
2019-05-29T05:48:08.104Z,32.23
2019-05-29T05:50:41.700Z,24.83
2019-05-29T05:53:14.921Z,24.40
2019-05-29T05:55:48.738Z,27.73
2019-05-29T05:58:22.394Z,15.57
2019-05-29T06:00:56.789Z,23.43
2019-05-29T06:03:31.714Z,22.83
2019-05-29T06:06:05.072Z,25.93
2019-05-29T06:08:38.407Z,24.40
2019-05-29T06:11:12.279Z,23.70
2019-05-29T06:13:46.014Z,23.70
2019-05-29T06:16:19.817Z,22.60
2019-05-29T06:18:53.953Z,22.77
2019-05-29T06:21:28.214Z,24.83
2019-05-29T06:24:03.447Z,29.77
2019-05-29T06:26:36.854Z,19.00
2019-05-29T06:29:10.566Z,22.27
2019-05-29T06:31:44.497Z,20.90
2019-05-29T06:34:17.958Z,24.43
2019-05-29T06:36:51.447Z,27.10
2019-05-29T06:39:25.132Z,18.60
2019-05-29T06:41:59.936Z,20.83
2019-05-29T06:44:39.351Z,23.60
2019-05-29T06:47:12.203Z,18.03
2019-05-29T06:49:46.299Z,24.10
2019-05-29T06:52:20.324Z,27.07
2019-05-29T06:54:53.435Z,22.53
2019-05-29T06:57:27.067Z,26.23
2019-05-29T07:00:00.342Z,23.50
2019-05-29T07:02:34.478Z,20.17
2019-05-29T07:05:08.536Z,16.43
2019-05-29T07:07:44.377Z,17.07
2019-05-29T07:10:18.295Z,18.60
2019-05-29T07:12:52.277Z,16.97
2019-05-29T07:15:26.457Z,18.10
2019-05-29T07:18:00.036Z,15.33
2019-05-29T07:20:33.855Z,12.80
2019-05-29T07:23:07.577Z,21.50
2019-05-29T07:25:45.468Z,19.50
2019-05-29T07:28:18.434Z,12.53
2019-05-29T07:31:00.907Z,16.17
2019-05-29T07:33:27.525Z,17.10
2019-05-29T07:36:00.894Z,18.63
2019-05-29T07:38:34.914Z,24.07
2019-05-29T07:41:08.166Z,16.70
2019-05-29T07:43:41.817Z,24.27
2019-05-29T07:46:16.420Z,21.50
2019-05-29T07:48:50.743Z,18.20
2019-05-29T07:51:24.145Z,15.93
2019-05-29T07:53:57.641Z,15.10
2019-05-29T07:56:31.449Z,21.13
2019-05-29T07:59:04.906Z,15.60
2019-05-29T08:01:38.721Z,14.87
2019-05-29T08:04:12.656Z,23.33
2019-05-29T08:06:52.332Z,23.93
2019-05-29T08:09:21.168Z,20.60
2019-05-29T08:11:54.413Z,24.37
2019-05-29T08:14:28.253Z,22.80
2019-05-29T08:17:01.423Z,19.50
2019-05-29T08:19:34.728Z,19.30
2019-05-29T08:22:07.628Z,22.43
2019-05-29T08:24:42.475Z,25.83
2019-05-29T08:27:15.802Z,25.97
2019-05-29T08:29:48.841Z,25.67
2019-05-29T08:32:21.806Z,20.63
2019-05-29T08:34:54.827Z,21.30
2019-05-29T08:37:27.875Z,23.70
2019-05-29T08:40:02.430Z,24.03
2019-05-29T08:42:37.978Z,23.67
2019-05-29T08:45:12.075Z,18.50
2019-05-29T08:47:46.300Z,23.37
2019-05-29T08:50:21.028Z,24.27
2019-05-29T08:52:56.885Z,21.43
2019-05-29T08:55:30.806Z,21.93
2019-05-29T08:58:04.768Z,24.13
2019-05-29T09:00:39.871Z,22.27
2019-05-29T09:03:13.665Z,20.03
2019-05-29T09:06:04.301Z,27.07
2019-05-29T09:08:23.073Z,19.30
2019-05-29T09:10:57.049Z,74.00
2019-05-29T09:13:30.980Z,24.47
2019-05-29T09:16:05.056Z,18.83
2019-05-29T09:18:39.896Z,20.93
2019-05-29T09:21:17.477Z,20.00
2019-05-29T09:23:51.730Z,16.43
2019-05-29T09:26:26.040Z,20.67
2019-05-29T09:29:01.309Z,15.37
2019-05-29T09:31:34.778Z,20.60
2019-05-29T09:34:09.149Z,19.40
2019-05-29T09:36:46.665Z,17.40
2019-05-29T09:39:21.266Z,16.67
2019-05-29T09:41:59.141Z,18.03
2019-05-29T09:44:38.795Z,14.40
2019-05-29T09:47:09.295Z,18.07
2019-05-29T09:49:43.271Z,16.13
2019-05-29T09:52:18.301Z,19.17
2019-05-29T09:54:54.554Z,25.13
2019-05-29T09:57:29.853Z,16.60
2019-05-29T10:00:05.449Z,18.17
2019-05-29T10:02:40.320Z,19.97
2019-05-29T10:05:14.176Z,17.83
2019-05-29T10:07:48.583Z,17.57
2019-05-29T10:10:26.152Z,17.37
2019-05-29T10:13:02.731Z,19.17
2019-05-29T10:15:36.714Z,17.10
2019-05-29T10:18:30.709Z,15.73
2019-05-29T10:20:49.245Z,15.33
2019-05-29T10:23:23.427Z,14.77
2019-05-29T10:26:00.269Z,16.17
2019-05-29T10:28:50.326Z,16.93
2019-05-29T10:31:12.026Z,19.07
2019-05-29T10:33:48.261Z,16.60
2019-05-29T10:36:22.652Z,15.53
2019-05-29T10:39:05.342Z,13.00
2019-05-29T10:41:39.383Z,17.53
2019-05-29T10:44:14.894Z,28.00
2019-05-29T10:46:54.712Z,19.70
2019-05-29T10:49:30.683Z,18.20
2019-05-29T10:52:14.691Z,19.47
2019-05-29T10:54:46.065Z,8.93
2019-05-29T10:57:21.902Z,8.53
2019-05-29T10:59:56.239Z,8.40
2019-05-29T11:02:32.814Z,6.80
2019-05-29T11:05:07.710Z,11.50
2019-05-29T11:07:43.264Z,4.90
2019-05-29T11:10:18.156Z,3.63
2019-05-29T11:12:52.611Z,3.80
2019-05-29T11:15:27.990Z,5.43
2019-05-29T11:18:03.829Z,6.33
2019-05-29T11:20:37.625Z,5.73
2019-05-29T11:23:12.688Z,5.30
2019-05-29T11:25:49.817Z,4.00
2019-05-29T11:28:24.108Z,6.60
2019-05-29T11:30:59.442Z,2.97
2019-05-29T11:33:36.284Z,6.70
2019-05-29T11:36:13.642Z,5.37
2019-05-29T11:38:50.482Z,6.40
2019-05-29T11:41:26.993Z,4.50
2019-05-29T11:44:00.351Z,4.63
2019-05-29T11:46:34.809Z,4.93
2019-05-29T11:49:08.811Z,7.40
2019-05-29T11:51:44.562Z,3.80
2019-05-29T11:54:20.236Z,4.63
2019-05-29T11:56:57.241Z,5.17
2019-05-29T11:59:33.518Z,4.17
2019-05-29T12:02:09.126Z,5.37
2019-05-29T12:04:43.231Z,2.57
2019-05-29T12:07:19.435Z,5.80
2019-05-29T12:09:53.636Z,4.93
2019-05-29T12:12:28.987Z,5.17
2019-05-29T12:15:10.919Z,4.83
2019-05-29T12:17:39.087Z,3.73
2019-05-29T12:20:31.388Z,5.53
2019-05-29T12:23:16.631Z,7.30
2019-05-29T12:25:27.508Z,4.80
2019-05-29T12:28:03.444Z,3.80
2019-05-29T12:30:39.408Z,5.80
2019-05-29T12:33:14.975Z,6.13
2019-05-29T12:35:50.354Z,4.07
2019-05-29T12:38:24.595Z,3.63
2019-05-29T12:41:01.666Z,4.70
2019-05-29T12:43:34.551Z,6.77
2019-05-29T12:46:09.171Z,3.23
2019-05-29T12:48:42.980Z,4.10
2019-05-29T12:51:16.866Z,7.03
2019-05-29T12:53:51.174Z,3.83
2019-05-29T12:56:25.226Z,4.33
2019-05-29T12:58:58.598Z,4.40
2019-05-29T13:01:34.039Z,5.77
2019-05-29T13:04:09.905Z,2.93
2019-05-29T13:06:48.036Z,5.07
2019-05-29T13:09:23.086Z,3.50
2019-05-29T13:11:58.476Z,6.80
2019-05-29T13:14:32.845Z,4.47
2019-05-29T13:17:07.762Z,6.27
2019-05-29T13:19:41.542Z,5.53
2019-05-29T13:22:15.389Z,5.87
2019-05-29T13:24:52.588Z,10.50
2019-05-29T13:27:24.391Z,7.87
2019-05-29T13:30:00.609Z,4.23
2019-05-29T13:32:35.555Z,7.50
2019-05-29T13:35:09.700Z,6.03
2019-05-29T13:37:44.146Z,7.97
2019-05-29T13:40:18.362Z,4.47
2019-05-29T13:42:52.093Z,5.63
2019-05-29T13:45:27.210Z,5.83
2019-05-29T13:48:03.104Z,4.63
2019-05-29T13:50:37.442Z,6.93
2019-05-29T13:53:13.729Z,5.13
2019-05-29T13:55:52.863Z,5.63
2019-05-29T13:58:27.369Z,7.17
2019-05-29T14:01:02.491Z,6.37
2019-05-29T14:03:36.918Z,7.47
2019-05-29T14:06:10.832Z,4.20
2019-05-29T14:08:44.800Z,4.97
2019-05-29T14:11:18.383Z,5.57
2019-05-29T14:25:26.603Z,2.40
2019-05-29T14:28:06.735Z,4.37
2019-05-29T14:30:40.217Z,17.93
2019-05-29T14:33:15.196Z,38.20
2019-05-29T14:35:49.275Z,63.33
2019-05-29T14:38:22.765Z,29.40
2019-05-29T14:40:57.313Z,14.73
2019-05-29T14:43:32.145Z,12.03
2019-05-29T14:46:06.160Z,8.53
2019-05-29T14:48:40.517Z,6.03
2019-05-29T14:51:14.588Z,14.20
2019-05-29T14:53:48.270Z,8.67
2019-05-29T14:56:22.401Z,8.80
2019-05-29T14:58:56.452Z,2.57
2019-05-29T15:01:30.048Z,12.97
2019-05-29T15:04:05.383Z,6.70
2019-05-29T15:06:40.673Z,6.77
2019-05-29T15:09:15.464Z,22.13
2019-05-29T15:11:49.421Z,9.17
2019-05-29T15:14:24.400Z,14.33
2019-05-29T15:16:59.597Z,2.77
2019-05-29T15:19:34.038Z,1.50
2019-05-29T15:22:09.249Z,2.90
2019-05-29T15:24:59.726Z,7.50
2019-05-29T15:27:19.303Z,5.03
2019-05-29T15:29:53.119Z,2.10
2019-05-29T15:32:27.249Z,3.27
2019-05-29T15:35:02.707Z,1.30
2019-05-29T15:37:37.955Z,1.77
2019-05-29T15:40:16.666Z,2.70
2019-05-29T15:42:51.153Z,1.37
2019-05-29T15:45:28.049Z,4.33
2019-05-29T15:48:02.634Z,1.60
2019-05-29T15:50:37.066Z,3.03
2019-05-29T15:53:13.363Z,3.57
2019-05-29T15:55:48.260Z,7.67
2019-05-29T15:58:23.255Z,1.37
2019-05-29T16:00:57.901Z,2.43
2019-05-29T16:03:32.707Z,2.43
2019-05-29T16:06:09.703Z,3.30
2019-05-29T16:08:44.110Z,1.63
2019-05-29T16:11:19.626Z,1.67
2019-05-29T16:13:54.958Z,5.53
2019-05-29T16:16:36.432Z,2.00
2019-05-29T16:19:10.351Z,2.37
2019-05-29T16:21:47.253Z,2.37
2019-05-29T16:24:23.111Z,2.43
2019-05-29T16:27:08.202Z,3.57
2019-05-29T16:29:34.615Z,2.83
2019-05-29T16:32:08.844Z,3.87
2019-05-29T16:34:42.949Z,6.73
2019-05-29T16:37:17.471Z,3.90
2019-05-29T16:39:52.044Z,4.43
2019-05-29T16:42:26.247Z,6.53
2019-05-29T16:45:00.341Z,7.40
2019-05-29T16:47:34.769Z,3.53
2019-05-29T16:50:09.538Z,6.30
2019-05-29T16:52:42.877Z,3.33
2019-05-29T16:55:17.185Z,5.93
2019-05-29T16:57:51.564Z,2.87
2019-05-29T17:00:26.060Z,3.67
2019-05-29T17:03:00.278Z,6.20
2019-05-29T17:05:35.573Z,4.37
2019-05-29T17:08:09.112Z,6.70
2019-05-29T17:10:47.188Z,6.27
2019-05-29T17:13:22.725Z,9.60
2019-05-29T17:15:59.806Z,3.37
2019-05-29T17:18:33.213Z,5.70
2019-05-29T17:21:08.843Z,4.27
2019-05-29T17:23:43.096Z,3.47
2019-05-29T17:26:18.684Z,7.00
2019-05-29T17:28:54.063Z,4.57
2019-05-29T17:31:30.755Z,6.57
2019-05-29T17:34:06.246Z,7.17
2019-05-29T17:36:45.466Z,3.23
2019-05-29T17:39:20.313Z,8.10
2019-05-29T17:41:57.065Z,5.93
2019-05-29T17:44:34.658Z,5.83
2019-05-29T17:47:09.468Z,4.80
2019-05-29T17:49:45.023Z,5.10
2019-05-29T17:52:19.831Z,16.83
2019-05-29T17:54:53.606Z,42.83
2019-05-29T17:57:27.935Z,10.80
2019-05-29T18:00:03.072Z,6.67
2019-05-29T18:02:50.860Z,9.20
2019-05-29T18:05:12.621Z,5.80
2019-05-29T18:07:48.972Z,6.07
2019-05-29T18:10:24.474Z,13.53
2019-05-29T18:12:59.560Z,4.27
2019-05-29T18:15:34.518Z,6.70
2019-05-29T18:18:08.552Z,6.20
2019-05-29T18:20:43.080Z,5.77
2019-05-29T18:23:17.520Z,7.47
2019-05-29T18:25:53.548Z,6.27
2019-05-29T18:28:30.426Z,7.87
2019-05-29T18:31:04.983Z,7.27
2019-05-29T18:33:39.538Z,7.10
2019-05-29T18:36:14.855Z,7.20
2019-05-29T18:38:53.824Z,8.20
2019-05-29T18:41:29.544Z,7.50
2019-05-29T18:44:05.018Z,6.80
2019-05-29T18:46:40.108Z,6.33
2019-05-29T18:49:14.872Z,4.63
2019-05-29T18:51:49.273Z,8.53
2019-05-29T18:54:25.740Z,3.53
2019-05-29T18:57:14.684Z,4.50
2019-05-29T18:59:40.158Z,6.87
2019-05-29T19:02:19.356Z,7.87
2019-05-29T19:04:52.823Z,7.60
2019-05-29T19:07:28.330Z,10.87
2019-05-29T19:10:06.545Z,11.53
2019-05-29T19:12:40.041Z,5.50
2019-05-29T19:15:19.357Z,8.03
2019-05-29T19:17:58.130Z,6.97
2019-05-29T19:20:36.106Z,7.80
2019-05-29T19:23:09.806Z,10.07
2019-05-29T19:25:46.270Z,4.87
2019-05-29T19:28:24.590Z,11.97
2019-05-29T19:30:59.691Z,30.60
2019-05-29T19:33:34.469Z,22.40
2019-05-29T19:36:09.434Z,42.00
2019-05-29T19:38:44.865Z,69.93
2019-05-29T19:41:20.204Z,12.27
2019-05-29T19:43:54.053Z,17.13
2019-05-29T19:46:28.561Z,4.90
2019-05-29T19:49:05.032Z,12.67
2019-05-29T19:51:39.030Z,15.07
2019-05-29T19:54:12.826Z,7.40
2019-05-29T19:56:47.442Z,12.33
2019-05-29T19:59:21.423Z,10.00
2019-05-29T20:01:55.725Z,5.73
2019-05-29T20:04:30.526Z,5.47
2019-05-29T20:07:06.822Z,7.03
2019-05-29T20:09:40.658Z,8.27
2019-05-29T20:12:14.901Z,5.37
2019-05-29T20:14:49.013Z,4.83
2019-05-29T20:17:32.062Z,9.30
2019-05-29T20:20:07.515Z,16.27
2019-05-29T20:22:41.548Z,36.60
2019-05-29T20:25:16.364Z,13.50
2019-05-29T20:28:05.812Z,14.57
2019-05-29T20:30:30.310Z,10.67
2019-05-29T20:33:05.994Z,10.90
2019-05-29T20:35:40.123Z,10.13
2019-05-29T20:38:18.357Z,12.03
2019-05-29T20:40:52.778Z,15.90
2019-05-29T20:43:27.289Z,16.53
2019-05-29T20:46:01.119Z,12.97
2019-05-29T20:48:38.758Z,6.90
2019-05-29T20:51:11.885Z,14.40
2019-05-29T20:53:46.309Z,5.50
2019-05-29T20:56:20.210Z,5.30
2019-05-29T20:58:54.590Z,7.97
2019-05-29T21:01:29.786Z,15.77
2019-05-29T21:04:04.238Z,6.83
2019-05-29T21:06:38.806Z,7.60
2019-05-29T21:09:14.225Z,9.17
2019-05-29T21:11:48.238Z,4.23
2019-05-29T21:14:24.808Z,8.77
2019-05-29T21:17:00.021Z,7.27
2019-05-29T21:19:34.160Z,9.53
2019-05-29T21:22:08.849Z,7.53
2019-05-29T21:24:49.322Z,8.97
2019-05-29T21:27:21.413Z,4.23
2019-05-29T21:29:55.648Z,6.67
2019-05-29T21:32:30.750Z,7.63
2019-05-29T21:35:15.998Z,10.27
2019-05-29T21:37:51.094Z,7.83
2019-05-29T21:40:25.757Z,6.23
2019-05-29T21:42:59.763Z,6.20
2019-05-29T21:45:33.545Z,9.03
2019-05-29T21:48:08.605Z,7.13
2019-05-29T21:50:50.662Z,12.00
2019-05-29T21:53:24.708Z,17.77
2019-05-29T21:55:58.350Z,9.20
2019-05-29T21:58:33.075Z,5.43
2019-05-29T22:01:07.046Z,5.27
2019-05-29T22:03:40.357Z,8.47
2019-05-29T22:06:13.689Z,7.20
2019-05-29T22:08:50.467Z,9.13
2019-05-29T22:11:25.127Z,5.70
2019-05-29T22:14:00.900Z,7.73
2019-05-29T22:16:34.471Z,6.77
2019-05-29T22:19:08.381Z,6.20
2019-05-29T22:21:44.013Z,5.67
2019-05-29T22:24:17.715Z,7.40
2019-05-29T22:26:51.606Z,6.53
2019-05-29T22:29:25.506Z,8.13
2019-05-29T22:31:59.571Z,6.47
2019-05-29T22:34:33.477Z,7.10
2019-05-29T22:37:08.006Z,5.83
2019-05-29T22:39:42.010Z,6.83
2019-05-29T22:42:16.881Z,7.37
2019-05-29T22:44:53.857Z,3.10
2019-05-29T22:47:27.478Z,3.03
2019-05-29T22:50:02.288Z,4.63
2019-05-29T22:52:36.003Z,6.17
2019-05-29T22:55:09.837Z,6.50
2019-05-29T22:57:44.040Z,9.40
2019-05-29T23:00:19.428Z,10.23
2019-05-29T23:02:54.015Z,6.97
2019-05-29T23:05:28.255Z,9.27
2019-05-29T23:08:07.085Z,6.37
2019-05-29T23:10:40.770Z,5.40
2019-05-29T23:13:14.133Z,5.80
2019-05-29T23:15:47.620Z,4.17
2019-05-29T23:18:20.475Z,6.63
2019-05-29T23:20:54.355Z,18.83
2019-05-29T23:23:27.814Z,25.07
2019-05-29T23:26:01.063Z,8.20
2019-05-29T23:28:34.096Z,5.73
2019-05-29T23:31:07.475Z,9.27
2019-05-29T23:33:43.994Z,12.77
2019-05-29T23:36:17.208Z,9.47
2019-05-29T23:38:51.243Z,10.50
2019-05-29T23:41:24.842Z,12.07
2019-05-29T23:43:59.509Z,8.10
2019-05-29T23:46:32.505Z,10.13
2019-05-29T23:49:05.340Z,8.60
2019-05-29T23:51:38.304Z,10.67
2019-05-29T23:54:11.589Z,8.03
2019-05-29T23:56:44.840Z,5.80
2019-05-29T23:59:18.510Z,9.10
